sensor_id;sensor_type;location;lat;lon;timestamp;pressure;altitude;pressure_sealevel;temperature;humidity
57056;BME280;42945;51.718;5.324;2022-12-07T00:01:29;101674.41;;;1.79;100.00
57056;BME280;42945;51.718;5.324;2022-12-07T00:03:56;101616.03;;;1.75;100.00
57056;BME280;42945;51.718;5.324;2022-12-07T00:06:32;101698.84;;;1.75;100.00
57056;BME280;42945;51.718;5.324;2022-12-07T00:08:59;101545.09;;;1.10;100.00
57056;BME280;42945;51.718;5.324;2022-12-07T00:11:24;101597.28;;;1.18;100.00
57056;BME280;42945;51.718;5.324;2022-12-07T00:13:58;101561.63;;;1.12;100.00
57056;BME280;42945;51.718;5.324;2022-12-07T00:16:25;101678.72;;;1.83;100.00
57056;BME280;42945;51.718;5.324;2022-12-07T00:18:51;101681.34;;;1.83;100.00
57056;BME280;42945;51.718;5.324;2022-12-07T00:21:19;101706.66;;;1.83;100.00
57056;BME280;42945;51.718;5.324;2022-12-07T00:23:46;101692.66;;;1.88;100.00
57056;BME280;42945;51.718;5.324;2022-12-07T00:26:33;101683.22;;;1.69;100.00
57056;BME280;42945;51.718;5.324;2022-12-07T00:29:03;101562.50;;;1.08;100.00
57056;BME280;42945;51.718;5.324;2022-12-07T00:31:31;101622.16;;;1.73;100.00
57056;BME280;42945;51.718;5.324;2022-12-07T00:33:58;101727.69;;;1.64;100.00
57056;BME280;42945;51.718;5.324;2022-12-07T00:36:24;101656.28;;;1.56;100.00
57056;BME280;42945;51.718;5.324;2022-12-07T00:38:50;101671.00;;;1.65;100.00
57056;BME280;42945;51.718;5.324;2022-12-07T00:41:18;101671.97;;;1.53;100.00
57056;BME280;42945;51.718;5.324;2022-12-07T00:43:45;101647.63;;;1.43;100.00
57056;BME280;42945;51.718;5.324;2022-12-07T00:46:11;101527.81;;;0.91;100.00
57056;BME280;42945;51.718;5.324;2022-12-07T00:48:37;101727.72;;;1.55;100.00
57056;BME280;42945;51.718;5.324;2022-12-07T00:51:06;101663.31;;;1.49;100.00
57056;BME280;42945;51.718;5.324;2022-12-07T00:53:35;101629.16;;;1.71;100.00
57056;BME280;42945;51.718;5.324;2022-12-07T00:56:08;101695.34;;;1.77;100.00
57056;BME280;42945;51.718;5.324;2022-12-07T00:58:34;101653.53;;;1.73;100.00
57056;BME280;42945;51.718;5.324;2022-12-07T01:01:00;101645.66;;;1.77;100.00
57056;BME280;42945;51.718;5.324;2022-12-07T01:03:27;101630.81;;;1.81;100.00
57056;BME280;42945;51.718;5.324;2022-12-07T01:05:55;101655.19;;;1.85;100.00
57056;BME280;42945;51.718;5.324;2022-12-07T01:08:22;101655.97;;;1.93;100.00
57056;BME280;42945;51.718;5.324;2022-12-07T01:10:48;101651.59;;;1.98;100.00
57056;BME280;42945;51.718;5.324;2022-12-07T01:13:14;101639.44;;;1.91;100.00
57056;BME280;42945;51.718;5.324;2022-12-07T01:15:41;101658.53;;;1.99;100.00
57056;BME280;42945;51.718;5.324;2022-12-07T01:18:07;101674.19;;;2.05;100.00
57056;BME280;42945;51.718;5.324;2022-12-07T01:20:32;101651.47;;;2.07;100.00
57056;BME280;42945;51.718;5.324;2022-12-07T01:22:57;101672.47;;;2.00;100.00
57056;BME280;42945;51.718;5.324;2022-12-07T01:25:23;101634.13;;;1.97;100.00
57056;BME280;42945;51.718;5.324;2022-12-07T01:27:48;101713.53;;;1.93;100.00
57056;BME280;42945;51.718;5.324;2022-12-07T01:30:14;101568.59;;;1.13;100.00
57056;BME280;42945;51.718;5.324;2022-12-07T01:32:39;101683.97;;;1.85;100.00
57056;BME280;42945;51.718;5.324;2022-12-07T01:35:05;101781.66;;;1.74;100.00
57056;BME280;42945;51.718;5.324;2022-12-07T01:37:37;101506.09;;;0.86;100.00
57056;BME280;42945;51.718;5.324;2022-12-07T01:40:07;101600.59;;;1.46;100.00
57056;BME280;42945;51.718;5.324;2022-12-07T01:42:33;101657.94;;;1.65;100.00
57056;BME280;42945;51.718;5.324;2022-12-07T01:47:48;101624.91;;;1.56;100.00
57056;BME280;42945;51.718;5.324;2022-12-07T01:50:15;101660.59;;;1.63;100.00
57056;BME280;42945;51.718;5.324;2022-12-07T01:52:41;101779.63;;;2.20;100.00
57056;BME280;42945;51.718;5.324;2022-12-07T01:55:10;101621.56;;;1.35;100.00
57056;BME280;42945;51.718;5.324;2022-12-07T01:57:41;101615.34;;;1.53;100.00
57056;BME280;42945;51.718;5.324;2022-12-07T02:00:08;101664.22;;;1.44;100.00
57056;BME280;42945;51.718;5.324;2022-12-07T02:02:45;101650.13;;;1.60;100.00
57056;BME280;42945;51.718;5.324;2022-12-07T02:05:12;101519.97;;;0.91;100.00
57056;BME280;42945;51.718;5.324;2022-12-07T02:07:38;101671.97;;;1.56;100.00
57056;BME280;42945;51.718;5.324;2022-12-07T02:12:39;101603.13;;;1.54;100.00
57056;BME280;42945;51.718;5.324;2022-12-07T02:15:05;101656.28;;;1.57;100.00
57056;BME280;42945;51.718;5.324;2022-12-07T02:17:54;101673.66;;;1.62;100.00
57056;BME280;42945;51.718;5.324;2022-12-07T02:20:34;101645.81;;;1.57;100.00
57056;BME280;42945;51.718;5.324;2022-12-07T02:31:36;101658.09;;;1.48;100.00
57056;BME280;42945;51.718;5.324;2022-12-07T02:34:18;101521.91;;;0.63;100.00
57056;BME280;42945;51.718;5.324;2022-12-07T02:36:52;101650.25;;;1.43;100.00
57056;BME280;42945;51.718;5.324;2022-12-07T02:39:40;101630.22;;;1.44;100.00
57056;BME280;42945;51.718;5.324;2022-12-07T02:45:20;101594.47;;;1.47;100.00
57056;BME280;42945;51.718;5.324;2022-12-07T02:47:50;101616.31;;;1.42;100.00
57056;BME280;42945;51.718;5.324;2022-12-07T02:50:19;101591.03;;;1.37;100.00
57056;BME280;42945;51.718;5.324;2022-12-07T02:52:44;101641.56;;;1.41;100.00
57056;BME280;42945;51.718;5.324;2022-12-07T02:55:15;101617.22;;;1.31;100.00
57056;BME280;42945;51.718;5.324;2022-12-07T02:58:13;101678.09;;;1.50;100.00
57056;BME280;42945;51.718;5.324;2022-12-07T03:00:54;101649.34;;;1.52;100.00
57056;BME280;42945;51.718;5.324;2022-12-07T03:03:24;101678.91;;;1.60;100.00
57056;BME280;42945;51.718;5.324;2022-12-07T03:06:15;101623.19;;;1.52;100.00
57056;BME280;42945;51.718;5.324;2022-12-07T03:16:22;101643.94;;;1.72;100.00
57056;BME280;42945;51.718;5.324;2022-12-07T03:21:26;101630.78;;;1.83;100.00
57056;BME280;42945;51.718;5.324;2022-12-07T03:23:57;101614.97;;;1.93;100.00
57056;BME280;42945;51.718;5.324;2022-12-07T03:26:31;101362.00;;;0.36;100.00
57056;BME280;42945;51.718;5.324;2022-12-07T03:29:02;101637.75;;;1.84;100.00
57056;BME280;42945;51.718;5.324;2022-12-07T03:31:39;101658.66;;;1.85;100.00
57056;BME280;42945;51.718;5.324;2022-12-07T03:34:14;101573.13;;;1.93;100.00
57056;BME280;42945;51.718;5.324;2022-12-07T03:36:47;101634.97;;;2.01;100.00
57056;BME280;42945;51.718;5.324;2022-12-07T03:39:45;101599.25;;;1.98;100.00
57056;BME280;42945;51.718;5.324;2022-12-07T03:42:15;101637.66;;;1.93;100.00
57056;BME280;42945;51.718;5.324;2022-12-07T03:44:41;101505.75;;;1.29;100.00
57056;BME280;42945;51.718;5.324;2022-12-07T03:47:32;101489.34;;;1.14;100.00
57056;BME280;42945;51.718;5.324;2022-12-07T03:50:04;101664.72;;;1.90;100.00
57056;BME280;42945;51.718;5.324;2022-12-07T03:53:03;101319.59;;;1.78;100.00
57056;BME280;42945;51.718;5.324;2022-12-07T03:55:37;101667.47;;;1.75;100.00
57056;BME280;42945;51.718;5.324;2022-12-07T03:58:07;101510.50;;;1.81;100.00
57056;BME280;42945;51.718;5.324;2022-12-07T04:00:34;101638.69;;;1.76;100.00
57056;BME280;42945;51.718;5.324;2022-12-07T04:03:00;101518.91;;;1.18;100.00
57056;BME280;42945;51.718;5.324;2022-12-07T04:05:26;101604.59;;;1.87;100.00
57056;BME280;42945;51.718;5.324;2022-12-07T04:07:51;101511.09;;;1.16;100.00
57056;BME280;42945;51.718;5.324;2022-12-07T04:10:17;101541.50;;;1.22;100.00
57056;BME280;42945;51.718;5.324;2022-12-07T04:12:43;101606.34;;;1.88;100.00
57056;BME280;42945;51.718;5.324;2022-12-07T04:15:08;101499.75;;;1.21;100.00
57056;BME280;42945;51.718;5.324;2022-12-07T04:17:34;101604.66;;;1.80;100.00
57056;BME280;42945;51.718;5.324;2022-12-07T04:20:00;101697.94;;;1.81;100.00
57056;BME280;42945;51.718;5.324;2022-12-07T04:22:25;101647.41;;;1.77;100.00
57056;BME280;42945;51.718;5.324;2022-12-07T04:24:51;101513.84;;;1.00;100.00
57056;BME280;42945;51.718;5.324;2022-12-07T04:27:16;101601.19;;;1.76;100.00
57056;BME280;42945;51.718;5.324;2022-12-07T04:29:41;101600.31;;;1.79;100.00
57056;BME280;42945;51.718;5.324;2022-12-07T04:32:07;101524.19;;;1.12;100.00
57056;BME280;42945;51.718;5.324;2022-12-07T04:34:32;101675.28;;;1.78;100.00
57056;BME280;42945;51.718;5.324;2022-12-07T04:36:58;101610.81;;;1.72;100.00
57056;BME280;42945;51.718;5.324;2022-12-07T04:39:28;101594.19;;;1.78;100.00
57056;BME280;42945;51.718;5.324;2022-12-07T04:41:53;101663.94;;;1.79;100.00
57056;BME280;42945;51.718;5.324;2022-12-07T04:44:20;101586.41;;;1.72;100.00
57056;BME280;42945;51.718;5.324;2022-12-07T04:46:46;101618.66;;;1.72;100.00
57056;BME280;42945;51.718;5.324;2022-12-07T04:49:12;101572.56;;;1.61;100.00
57056;BME280;42945;51.718;5.324;2022-12-07T04:51:38;101521.44;;;1.26;100.00
57056;BME280;42945;51.718;5.324;2022-12-07T04:54:04;101611.78;;;1.64;100.00
57056;BME280;42945;51.718;5.324;2022-12-07T04:56:30;101369.03;;;0.26;100.00
57056;BME280;42945;51.718;5.324;2022-12-07T04:58:55;101598.56;;;1.76;100.00
57056;BME280;42945;51.718;5.324;2022-12-07T05:01:22;101556.88;;;1.62;100.00
57056;BME280;42945;51.718;5.324;2022-12-07T05:03:47;101565.63;;;1.60;100.00
57056;BME280;42945;51.718;5.324;2022-12-07T05:06:14;101588.22;;;1.65;100.00
57056;BME280;42945;51.718;5.324;2022-12-07T05:08:40;101512.91;;;1.05;100.00
57056;BME280;42945;51.718;5.324;2022-12-07T05:11:06;101626.53;;;1.69;100.00
57056;BME280;42945;51.718;5.324;2022-12-07T05:13:32;101632.56;;;1.76;100.00
57056;BME280;42945;51.718;5.324;2022-12-07T05:15:57;101622.28;;;1.56;100.00
57056;BME280;42945;51.718;5.324;2022-12-07T05:18:23;101617.06;;;1.59;100.00
57056;BME280;42945;51.718;5.324;2022-12-07T05:20:48;101594.41;;;1.55;100.00
57056;BME280;42945;51.718;5.324;2022-12-07T05:23:14;101608.28;;;1.63;100.00
57056;BME280;42945;51.718;5.324;2022-12-07T05:25:40;101600.47;;;1.60;100.00
57056;BME280;42945;51.718;5.324;2022-12-07T05:28:06;101523.81;;;1.55;100.00
57056;BME280;42945;51.718;5.324;2022-12-07T05:30:32;101551.88;;;1.33;100.00
57056;BME280;42945;51.718;5.324;2022-12-07T05:32:57;101568.53;;;1.24;100.00
57056;BME280;42945;51.718;5.324;2022-12-07T05:35:23;101559.78;;;1.22;100.00
57056;BME280;42945;51.718;5.324;2022-12-07T05:37:49;101617.22;;;1.31;100.00
57056;BME280;42945;51.718;5.324;2022-12-07T05:40:15;101614.59;;;1.36;100.00
57056;BME280;42945;51.718;5.324;2022-12-07T05:42:43;101627.69;;;1.34;100.00
57056;BME280;42945;51.718;5.324;2022-12-07T05:45:09;101737.88;;;2.06;100.00
57056;BME280;42945;51.718;5.324;2022-12-07T05:47:34;101625.00;;;1.44;100.00
57056;BME280;42945;51.718;5.324;2022-12-07T05:50:00;101588.53;;;1.28;100.00
57056;BME280;42945;51.718;5.324;2022-12-07T05:52:25;101421.28;;;0.11;100.00
57056;BME280;42945;51.718;5.324;2022-12-07T05:54:51;101579.00;;;1.18;100.00
57056;BME280;42945;51.718;5.324;2022-12-07T05:57:16;101582.50;;;1.17;100.00
57056;BME280;42945;51.718;5.324;2022-12-07T05:59:42;101580.69;;;1.24;100.00
57056;BME280;42945;51.718;5.324;2022-12-07T06:02:10;101588.41;;;1.42;100.00
57056;BME280;42945;51.718;5.324;2022-12-07T06:04:41;101583.25;;;1.36;100.00
57056;BME280;42945;51.718;5.324;2022-12-07T06:07:07;101570.00;;;1.56;100.00
57056;BME280;42945;51.718;5.324;2022-12-07T06:09:33;101456.44;;;0.93;100.00
57056;BME280;42945;51.718;5.324;2022-12-07T06:11:59;101583.00;;;1.62;100.00
57056;BME280;42945;51.718;5.324;2022-12-07T06:14:44;101590.78;;;1.73;100.00
57056;BME280;42945;51.718;5.324;2022-12-07T06:17:11;101610.84;;;1.69;100.00
57056;BME280;42945;51.718;5.324;2022-12-07T06:19:38;101561.22;;;1.63;100.00
57056;BME280;42945;51.718;5.324;2022-12-07T06:22:04;101581.19;;;1.72;100.00
57056;BME280;42945;51.718;5.324;2022-12-07T06:24:30;101499.00;;;1.03;100.00
57056;BME280;42945;51.718;5.324;2022-12-07T06:26:55;101628.25;;;1.72;100.00
57056;BME280;42945;51.718;5.324;2022-12-07T06:29:20;101597.78;;;1.69;100.00
57056;BME280;42945;51.718;5.324;2022-12-07T06:31:47;101570.84;;;1.61;100.00
57056;BME280;42945;51.718;5.324;2022-12-07T06:34:15;101598.69;;;1.65;100.00
57056;BME280;42945;51.718;5.324;2022-12-07T06:36:42;101589.88;;;1.72;100.00
57056;BME280;42945;51.718;5.324;2022-12-07T06:39:08;101625.75;;;1.60;100.00
57056;BME280;42945;51.718;5.324;2022-12-07T06:41:35;101639.56;;;1.72;100.00
57056;BME280;42945;51.718;5.324;2022-12-07T06:44:00;101608.34;;;1.55;100.00
57056;BME280;42945;51.718;5.324;2022-12-07T06:46:26;101601.41;;;1.51;100.00
57056;BME280;42945;51.718;5.324;2022-12-07T06:48:51;101598.00;;;1.42;100.00
57056;BME280;42945;51.718;5.324;2022-12-07T06:51:17;101571.94;;;1.29;100.00
57056;BME280;42945;51.718;5.324;2022-12-07T06:53:42;101487.88;;;0.75;100.00
57056;BME280;42945;51.718;5.324;2022-12-07T06:56:08;101640.63;;;1.50;100.00
57056;BME280;42945;51.718;5.324;2022-12-07T06:58:33;101624.16;;;1.42;100.00
57056;BME280;42945;51.718;5.324;2022-12-07T07:00:58;101593.53;;;1.54;100.00
57056;BME280;42945;51.718;5.324;2022-12-07T07:03:23;101474.75;;;0.86;100.00
57056;BME280;42945;51.718;5.324;2022-12-07T07:05:49;101631.03;;;1.49;100.00
57056;BME280;42945;51.718;5.324;2022-12-07T07:08:14;101596.19;;;1.50;100.00
57056;BME280;42945;51.718;5.324;2022-12-07T07:10:41;101504.34;;;0.89;100.00
57056;BME280;42945;51.718;5.324;2022-12-07T07:13:07;101543.06;;;1.45;100.00
57056;BME280;42945;51.718;5.324;2022-12-07T07:15:33;101594.44;;;1.49;100.00
57056;BME280;42945;51.718;5.324;2022-12-07T07:17:59;101634.44;;;1.60;100.00
57056;BME280;42945;51.718;5.324;2022-12-07T07:20:24;101624.00;;;1.60;100.00
57056;BME280;42945;51.718;5.324;2022-12-07T07:22:49;101605.69;;;1.57;100.00
57056;BME280;42945;51.718;5.324;2022-12-07T07:25:15;101589.16;;;1.61;100.00
57056;BME280;42945;51.718;5.324;2022-12-07T07:27:41;101596.94;;;1.63;100.00
57056;BME280;42945;51.718;5.324;2022-12-07T07:30:07;101625.81;;;1.52;100.00
57056;BME280;42945;51.718;5.324;2022-12-07T07:32:33;101615.31;;;1.58;100.00
57056;BME280;42945;51.718;5.324;2022-12-07T07:34:58;101596.16;;;1.56;100.00
57056;BME280;42945;51.718;5.324;2022-12-07T07:37:23;101630.97;;;1.61;100.00
57056;BME280;42945;51.718;5.324;2022-12-07T07:39:49;101598.00;;;1.42;100.00
57056;BME280;42945;51.718;5.324;2022-12-07T07:42:14;101466.16;;;0.70;100.00
57056;BME280;42945;51.718;5.324;2022-12-07T07:44:43;101599.72;;;1.44;100.00
57056;BME280;42945;51.718;5.324;2022-12-07T07:47:09;101564.97;;;1.31;100.00
57056;BME280;42945;51.718;5.324;2022-12-07T07:49:34;101621.44;;;1.52;100.00
57056;BME280;42945;51.718;5.324;2022-12-07T07:51:59;101513.88;;;0.90;100.00
57056;BME280;42945;51.718;5.324;2022-12-07T07:54:25;101546.66;;;1.34;100.00
57056;BME280;42945;51.718;5.324;2022-12-07T07:56:50;101595.16;;;1.71;100.00
57056;BME280;42945;51.718;5.324;2022-12-07T07:59:16;101602.94;;;1.77;100.00
57056;BME280;42945;51.718;5.324;2022-12-07T08:01:42;101614.13;;;1.90;100.00
57056;BME280;42945;51.718;5.324;2022-12-07T08:04:08;101619.44;;;1.84;100.00
57056;BME280;42945;51.718;5.324;2022-12-07T08:06:33;101600.22;;;1.88;100.00
57056;BME280;42945;51.718;5.324;2022-12-07T08:08:58;101601.81;;;2.04;100.00
57056;BME280;42945;51.718;5.324;2022-12-07T08:11:24;101550.41;;;2.00;100.00
57056;BME280;42945;51.718;5.324;2022-12-07T08:13:50;101659.31;;;2.07;100.00
57056;BME280;42945;51.718;5.324;2022-12-07T08:16:16;101641.06;;;2.04;100.00
57056;BME280;42945;51.718;5.324;2022-12-07T08:18:42;101470.03;;;1.29;100.00
57056;BME280;42945;51.718;5.324;2022-12-07T08:21:12;101589.75;;;1.88;100.00
57056;BME280;42945;51.718;5.324;2022-12-07T08:23:37;101616.78;;;1.88;100.00
57056;BME280;42945;51.718;5.324;2022-12-07T08:26:06;101624.66;;;1.82;100.00
57056;BME280;42945;51.718;5.324;2022-12-07T08:28:32;101670.75;;;1.99;100.00
57056;BME280;42945;51.718;5.324;2022-12-07T08:31:06;101496.28;;;1.14;100.00
57056;BME280;42945;51.718;5.324;2022-12-07T08:33:33;101615.16;;;1.75;100.00
57056;BME280;42945;51.718;5.324;2022-12-07T08:36:11;101478.06;;;1.06;100.00
57056;BME280;42945;51.718;5.324;2022-12-07T08:38:38;101671.88;;;1.68;100.00
57056;BME280;42945;51.718;5.324;2022-12-07T08:41:05;101510.31;;;1.07;100.00
57056;BME280;42945;51.718;5.324;2022-12-07T08:43:31;101606.63;;;1.53;100.00
57056;BME280;42945;51.718;5.324;2022-12-07T08:46:07;101481.63;;;0.96;100.00
57056;BME280;42945;51.718;5.324;2022-12-07T08:48:36;101560.38;;;1.60;100.00
57056;BME280;42945;51.718;5.324;2022-12-07T08:51:04;101467.66;;;1.02;100.00
57056;BME280;42945;51.718;5.324;2022-12-07T08:53:29;101523.44;;;0.94;100.00
57056;BME280;42945;51.718;5.324;2022-12-07T08:55:56;101675.31;;;1.73;100.00
57056;BME280;42945;51.718;5.324;2022-12-07T08:58:22;101677.03;;;1.81;100.00
57056;BME280;42945;51.718;5.324;2022-12-07T09:00:48;101609.88;;;1.84;100.00
57056;BME280;42945;51.718;5.324;2022-12-07T09:03:13;101778.66;;;3.17;100.00
57056;BME280;42945;51.718;5.324;2022-12-07T09:05:39;101597.50;;;1.97;100.00
57056;BME280;42945;51.718;5.324;2022-12-07T09:08:05;101976.91;;;1.94;100.00
57056;BME280;42945;51.718;5.324;2022-12-07T09:10:31;101575.66;;;2.04;100.00
57056;BME280;42945;51.718;5.324;2022-12-07T09:12:57;101573.97;;;1.97;100.00
57056;BME280;42945;51.718;5.324;2022-12-07T09:15:28;101601.75;;;2.12;100.00
57056;BME280;42945;51.718;5.324;2022-12-07T09:17:54;101589.53;;;2.11;100.00
57056;BME280;42945;51.718;5.324;2022-12-07T09:20:20;101570.09;;;2.33;100.00
57056;BME280;42945;51.718;5.324;2022-12-07T09:22:45;101572.81;;;2.23;100.00
57056;BME280;42945;51.718;5.324;2022-12-07T09:25:10;101575.16;;;2.47;100.00
57056;BME280;42945;51.718;5.324;2022-12-07T09:27:36;101827.91;;;1.69;100.00
57056;BME280;42945;51.718;5.324;2022-12-07T09:30:03;101596.19;;;2.41;100.00
57056;BME280;42945;51.718;5.324;2022-12-07T09:32:28;101482.47;;;1.91;100.00
57056;BME280;42945;51.718;5.324;2022-12-07T09:34:54;101632.59;;;2.60;100.00
57056;BME280;42945;51.718;5.324;2022-12-07T09:37:19;101533.91;;;2.65;100.00
57056;BME280;42945;51.718;5.324;2022-12-07T09:39:44;101592.34;;;2.70;100.00
57056;BME280;42945;51.718;5.324;2022-12-07T09:42:25;101578.22;;;2.80;100.00
57056;BME280;42945;51.718;5.324;2022-12-07T09:44:51;101556.72;;;2.55;100.00
57056;BME280;42945;51.718;5.324;2022-12-07T09:47:16;101585.28;;;2.75;100.00
57056;BME280;42945;51.718;5.324;2022-12-07T09:49:42;101643.50;;;2.99;100.00
57056;BME280;42945;51.718;5.324;2022-12-07T09:54:35;101590.19;;;2.98;100.00
57056;BME280;42945;51.718;5.324;2022-12-07T09:57:27;101563.34;;;2.84;100.00
57056;BME280;42945;51.718;5.324;2022-12-07T09:59:56;101362.47;;;1.65;100.00
57056;BME280;42945;51.718;5.324;2022-12-07T10:02:42;101589.09;;;3.14;100.00
57056;BME280;42945;51.718;5.324;2022-12-07T10:05:14;101625.75;;;3.18;100.00
57056;BME280;42945;51.718;5.324;2022-12-07T10:07:41;101482.66;;;3.06;100.00
57056;BME280;42945;51.718;5.324;2022-12-07T10:10:13;101598.19;;;3.99;100.00
57056;BME280;42945;51.718;5.324;2022-12-07T10:13:06;101570.16;;;4.01;100.00
57056;BME280;42945;51.718;5.324;2022-12-07T10:15:55;101461.25;;;3.32;100.00
57056;BME280;42945;51.718;5.324;2022-12-07T10:18:41;101591.53;;;3.80;100.00
57056;BME280;42945;51.718;5.324;2022-12-07T10:21:15;101400.78;;;2.91;100.00
57056;BME280;42945;51.718;5.324;2022-12-07T10:24:14;101555.00;;;3.69;100.00
57056;BME280;42945;51.718;5.324;2022-12-07T10:31:38;101489.88;;;3.43;100.00
57056;BME280;42945;51.718;5.324;2022-12-07T10:34:20;101542.06;;;4.06;100.00
57056;BME280;42945;51.718;5.324;2022-12-07T10:36:46;101537.59;;;4.11;100.00
57056;BME280;42945;51.718;5.324;2022-12-07T10:39:18;101498.31;;;4.07;100.00
57056;BME280;42945;51.718;5.324;2022-12-07T10:41:53;101539.16;;;4.22;100.00
57056;BME280;42945;51.718;5.324;2022-12-07T10:44:23;101552.41;;;4.14;100.00
57056;BME280;42945;51.718;5.324;2022-12-07T10:47:17;101565.81;;;4.44;100.00
57056;BME280;42945;51.718;5.324;2022-12-07T10:50:00;101521.34;;;4.36;100.00
57056;BME280;42945;51.718;5.324;2022-12-07T10:57:56;101519.03;;;4.61;100.00
57056;BME280;42945;51.718;5.324;2022-12-07T11:00:25;101477.53;;;3.96;100.00
57056;BME280;42945;51.718;5.324;2022-12-07T11:03:06;101413.78;;;3.91;100.00
57056;BME280;42945;51.718;5.324;2022-12-07T11:06:04;101530.34;;;4.65;100.00
57056;BME280;42945;51.718;5.324;2022-12-07T11:09:04;101543.34;;;4.71;100.00
57056;BME280;42945;51.718;5.324;2022-12-07T11:11:43;101504.59;;;4.42;100.00
57056;BME280;42945;51.718;5.324;2022-12-07T11:14:27;101483.03;;;4.27;100.00
57056;BME280;42945;51.718;5.324;2022-12-07T11:17:14;101618.81;;;4.66;100.00
57056;BME280;42945;51.718;5.324;2022-12-07T11:22:44;101403.38;;;3.41;100.00
57056;BME280;42945;51.718;5.324;2022-12-07T11:31:08;101371.91;;;3.41;100.00
57056;BME280;42945;51.718;5.324;2022-12-07T11:34:00;101526.03;;;4.20;100.00
57056;BME280;42945;51.718;5.324;2022-12-07T11:36:43;101437.38;;;4.33;100.00
57056;BME280;42945;51.718;5.324;2022-12-07T11:41:46;101507.66;;;4.62;100.00
57056;BME280;42945;51.718;5.324;2022-12-07T11:50:20;101480.53;;;4.99;100.00
57056;BME280;42945;51.718;5.324;2022-12-07T11:52:58;101465.56;;;5.01;100.00
57056;BME280;42945;51.718;5.324;2022-12-07T11:55:26;101471.44;;;5.12;100.00
57056;BME280;42945;51.718;5.324;2022-12-07T11:58:01;101522.03;;;5.22;100.00
57056;BME280;42945;51.718;5.324;2022-12-07T12:00:28;101489.25;;;5.00;100.00
57056;BME280;42945;51.718;5.324;2022-12-07T12:02:55;101459.91;;;5.18;100.00
57056;BME280;42945;51.718;5.324;2022-12-07T12:05:24;101420.03;;;5.01;100.00
57056;BME280;42945;51.718;5.324;2022-12-07T12:08:01;101349.25;;;4.21;100.00
57056;BME280;42945;51.718;5.324;2022-12-07T12:10:40;101519.19;;;4.94;100.00
57056;BME280;42945;51.718;5.324;2022-12-07T12:13:28;101481.00;;;5.15;100.00
57056;BME280;42945;51.718;5.324;2022-12-07T12:21:46;101463.66;;;5.42;100.00
57056;BME280;42945;51.718;5.324;2022-12-07T12:24:17;101414.06;;;5.60;100.00
57056;BME280;42945;51.718;5.324;2022-12-07T12:26:58;101316.53;;;5.05;100.00
57056;BME280;42945;51.718;5.324;2022-12-07T12:29:36;101329.69;;;4.69;100.00
57056;BME280;42945;51.718;5.324;2022-12-07T12:32:15;101429.59;;;5.38;100.00
57056;BME280;42945;51.718;5.324;2022-12-07T12:35:02;101441.25;;;5.60;100.00
57056;BME280;42945;51.718;5.324;2022-12-07T12:42:54;101424.78;;;5.21;100.00
57056;BME280;42945;51.718;5.324;2022-12-07T12:45:23;101266.41;;;4.78;100.00
57056;BME280;42945;51.718;5.324;2022-12-07T12:47:56;101483.16;;;5.68;100.00
57056;BME280;42945;51.718;5.324;2022-12-07T12:52:56;101252.28;;;4.82;100.00
57056;BME280;42945;51.718;5.324;2022-12-07T12:55:48;101404.53;;;5.24;100.00
57056;BME280;42945;51.718;5.324;2022-12-07T13:00:43;101371.00;;;5.31;100.00
57056;BME280;42945;51.718;5.324;2022-12-07T13:03:23;101293.25;;;4.57;100.00
57056;BME280;42945;51.718;5.324;2022-12-07T13:06:31;101407.41;;;5.13;100.00
57056;BME280;42945;51.718;5.324;2022-12-07T13:08:59;101398.59;;;5.16;100.00
57056;BME280;42945;51.718;5.324;2022-12-07T13:11:31;101277.66;;;4.50;100.00
57056;BME280;42945;51.718;5.324;2022-12-07T13:17:00;101350.56;;;5.09;100.00
57056;BME280;42945;51.718;5.324;2022-12-07T13:22:35;101241.69;;;4.85;100.00
57056;BME280;42945;51.718;5.324;2022-12-07T13:25:27;101380.97;;;5.52;100.00
57056;BME280;42945;51.718;5.324;2022-12-07T13:28:04;101384.22;;;5.62;100.00
57056;BME280;42945;51.718;5.324;2022-12-07T13:30:50;101317.53;;;5.32;100.00
57056;BME280;42945;51.718;5.324;2022-12-07T13:33:18;101403.28;;;5.38;100.00
57056;BME280;42945;51.718;5.324;2022-12-07T13:35:47;101338.84;;;5.21;100.00
57056;BME280;42945;51.718;5.324;2022-12-07T13:38:33;101154.91;;;3.90;100.00
57056;BME280;42945;51.718;5.324;2022-12-07T13:41:17;101341.16;;;5.01;100.00
57056;BME280;42945;51.718;5.324;2022-12-07T13:43:59;101352.66;;;4.97;100.00
57056;BME280;42945;51.718;5.324;2022-12-07T13:46:35;101345.81;;;4.91;100.00
57056;BME280;42945;51.718;5.324;2022-12-07T13:49:17;101371.47;;;4.81;100.00
57056;BME280;42945;51.718;5.324;2022-12-07T13:51:42;101401.25;;;4.80;100.00
57056;BME280;42945;51.718;5.324;2022-12-07T13:54:10;101421.59;;;4.72;100.00
57056;BME280;42945;51.718;5.324;2022-12-07T13:56:37;101378.34;;;4.49;100.00
57056;BME280;42945;51.718;5.324;2022-12-07T13:59:07;101382.41;;;4.25;100.00
57056;BME280;42945;51.718;5.324;2022-12-07T14:01:37;101380.50;;;3.91;100.00
57056;BME280;42945;51.718;5.324;2022-12-07T14:04:32;101364.34;;;4.11;100.00
57056;BME280;42945;51.718;5.324;2022-12-07T14:06:58;101368.00;;;4.04;100.00
57056;BME280;42945;51.718;5.324;2022-12-07T14:09:26;101352.25;;;4.04;100.00
57056;BME280;42945;51.718;5.324;2022-12-07T14:11:54;101371.44;;;4.08;100.00
57056;BME280;42945;51.718;5.324;2022-12-07T14:14:22;101410.00;;;4.04;100.00
57056;BME280;42945;51.718;5.324;2022-12-07T14:16:57;101345.38;;;3.99;100.00
57056;BME280;42945;51.718;5.324;2022-12-07T14:22:32;101337.38;;;4.05;100.00
57056;BME280;42945;51.718;5.324;2022-12-07T14:27:39;101287.84;;;3.89;100.00
57056;BME280;42945;51.718;5.324;2022-12-07T14:30:16;101285.81;;;4.02;100.00
57056;BME280;42945;51.718;5.324;2022-12-07T14:32:42;101306.81;;;4.02;100.00